Oriibu — JD2579 — position and weather

sailwx.info

Track history (hours):
 
Tides and Currents Weather Stations Pressure Air Temp Water Temp Dewpoint Dewpoint Depression Visibility Wind Speed Wind Dir Waves Ship Positions

Oriibu

Last reported at 2016-Sep-24 10:33 UTC. Time now 2016-Sep-28 08:34 UTC.
Position N 34°36' E 135°07'.

Length 75 m; draft 4.5 m.

MMSI: 431000426.

Date/timePositionNaut miles runAvg speedWind from/ knotsBaromVisibWave heightAir tempDewpointWater temp
2016-Sep-24 10:33N 34°36' E 135°07'1212.4
2016-Sep-24 09:34N 34°39' E 135°22'2 0.3
2016-Sep-24 03:33N 34°37' E 135°23'6 0.7
2016-Sep-23 19:05N 34°32' E 135°20'0 0.0
2016-Sep-23 13:29N 34°32' E 135°20'  
2016-Sep-16 09:24N 35°58' E 140°43'4 0.3
2016-Sep-15 20:14N 35°56' E 140°40'63 8.2
2016-Sep-15 12:32N 34°59' E 140°07'38 4.7
2016-Sep-15 04:33N 35°29' E 139°39'0 0.0
2016-Sep-15 03:33N 35°29' E 139°39'3 1.5
2016-Sep-15 01:33N 35°27' E 139°42'0 0.0
2016-Sep-14 22:31N 35°27' E 139°42'0 0.0
2016-Sep-14 21:31N 35°27' E 139°42'0 0.0
2016-Sep-14 17:31N 35°27' E 139°42'0 0.0
2016-Sep-14 16:31N 35°27' E 139°42'0 0.0
2016-Sep-14 13:31N 35°27' E 139°42'0 0.0
2016-Sep-14 12:31N 35°27' E 139°42'  
Track history (hours):
 
Tides and Currents Weather Stations Pressure Air Temp Water Temp Dewpoint Dewpoint Depression Visibility Wind Speed Wind Dir Waves Ship Positions

Oriibu

Last reported at 2016-Sep-24 10:33 UTC. Time now 2016-Sep-28 08:34 UTC.
Position N 34°36' E 135°07'.

Length 75 m; draft 4.5 m.

MMSI: 431000426.

Date/timePositionNaut miles runAvg speedWind from/ knotsBaromVisibWave heightAir tempDewpointWater temp
2016-Sep-24 10:33N 34°36' E 135°07'1212.4
2016-Sep-24 09:34N 34°39' E 135°22'2 0.3
2016-Sep-24 03:33N 34°37' E 135°23'6 0.7
2016-Sep-23 19:05N 34°32' E 135°20'0 0.0
2016-Sep-23 13:29N 34°32' E 135°20'  
2016-Sep-16 09:24N 35°58' E 140°43'4 0.3
2016-Sep-15 20:14N 35°56' E 140°40'63 8.2
2016-Sep-15 12:32N 34°59' E 140°07'38 4.7
2016-Sep-15 04:33N 35°29' E 139°39'0 0.0
2016-Sep-15 03:33N 35°29' E 139°39'3 1.5
2016-Sep-15 01:33N 35°27' E 139°42'0 0.0
2016-Sep-14 22:31N 35°27' E 139°42'0 0.0
2016-Sep-14 21:31N 35°27' E 139°42'0 0.0
2016-Sep-14 17:31N 35°27' E 139°42'0 0.0
2016-Sep-14 16:31N 35°27' E 139°42'0 0.0
2016-Sep-14 13:31N 35°27' E 139°42'0 0.0
2016-Sep-14 12:31N 35°27' E 139°42'  

Dump ship's entire track history